createdAt,value
2023-05-14T00:02:06.343Z,12.50
2023-05-14T00:07:07.971Z,15.90
2023-05-14T00:12:09.807Z,14.50
2023-05-14T00:17:11.621Z,14.20
2023-05-14T00:22:13.451Z,15.40
2023-05-14T00:27:15.281Z,16.90
2023-05-14T00:32:17.130Z,16.10
2023-05-14T00:37:19.028Z,15.80
2023-05-14T00:42:20.732Z,11.40
2023-05-14T00:47:22.567Z,18.10
2023-05-14T00:52:24.586Z,15.00
2023-05-14T00:57:26.627Z,15.20
2023-05-14T01:02:28.322Z,16.70
2023-05-14T01:07:43.953Z,15.10
2023-05-14T01:12:55.501Z,14.00
2023-05-14T01:18:01.798Z,14.30
2023-05-14T01:23:03.956Z,14.50
2023-05-14T01:28:13.059Z,13.80
2023-05-14T01:33:18.113Z,13.50
2023-05-14T01:38:21.361Z,13.50
2023-05-14T01:43:23.944Z,11.10
2023-05-14T01:48:25.793Z,10.80
2023-05-14T01:53:27.777Z,17.00
2023-05-14T01:58:29.589Z,15.70
2023-05-14T02:03:31.474Z,15.90
2023-05-14T02:08:33.599Z,12.40
2023-05-14T02:13:36.254Z,15.70
2023-05-14T02:23:41.935Z,15.90
2023-05-14T02:28:44.495Z,15.30
2023-05-14T02:33:47.990Z,13.90
2023-05-14T02:38:49.659Z,16.60
2023-05-14T02:43:52.538Z,17.50
2023-05-14T02:48:54.367Z,10.80
2023-05-14T02:53:56.146Z,15.50
2023-05-14T02:58:57.836Z,16.30
2023-05-14T03:04:00.292Z,19.10
2023-05-14T03:09:02.043Z,18.10
2023-05-14T03:14:03.819Z,15.80
2023-05-14T03:19:05.882Z,15.90
2023-05-14T03:24:07.772Z,15.20
2023-05-14T03:29:10.788Z,11.60
2023-05-14T03:34:12.658Z,18.00
2023-05-14T03:39:19.517Z,16.00
2023-05-14T03:44:21.269Z,16.60
2023-05-14T03:49:23.090Z,16.10
2023-05-14T03:54:26.443Z,16.40
2023-05-14T03:59:28.723Z,15.90
2023-05-14T04:04:30.406Z,12.40
2023-05-14T04:09:32.210Z,11.50
2023-05-14T04:14:33.879Z,15.20
2023-05-14T04:19:35.830Z,13.90
2023-05-14T04:24:38.020Z,13.00
2023-05-14T04:29:39.693Z,14.80
2023-05-14T04:34:41.506Z,14.60
2023-05-14T04:39:43.664Z,15.10
2023-05-14T04:49:47.023Z,14.30
2023-05-14T04:54:48.700Z,14.70
2023-05-14T05:04:52.169Z,15.10
2023-05-14T05:09:53.989Z,18.60
2023-05-14T05:14:57.439Z,13.40
2023-05-14T05:19:59.162Z,18.40
2023-05-14T05:25:01.099Z,16.30
2023-05-14T05:30:04.045Z,11.00
2023-05-14T05:35:06.667Z,10.30
2023-05-14T05:40:10.213Z,8.40
2023-05-14T05:45:11.878Z,8.60
2023-05-14T05:50:14.935Z,13.40
2023-05-14T05:55:16.746Z,11.60
2023-05-14T06:00:19.157Z,10.70
2023-05-14T06:05:20.931Z,10.70
2023-05-14T06:10:22.991Z,10.60
2023-05-14T06:15:25.125Z,9.90
2023-05-14T06:20:26.995Z,13.00
2023-05-14T06:25:28.825Z,12.30
2023-05-14T06:30:30.623Z,11.10
2023-05-14T06:35:33.019Z,11.00
2023-05-14T06:40:34.684Z,12.50
2023-05-14T06:45:36.595Z,9.50
2023-05-14T06:50:38.433Z,12.30
2023-05-14T06:55:40.179Z,8.90
2023-05-14T07:00:41.971Z,10.00
2023-05-14T07:05:45.905Z,9.00
2023-05-14T07:10:47.624Z,9.90
2023-05-14T07:15:49.421Z,7.40
2023-05-14T07:20:51.265Z,8.20
2023-05-14T07:25:52.970Z,7.80
2023-05-14T07:30:54.666Z,7.70
2023-05-14T07:35:56.408Z,8.10
2023-05-14T07:40:58.564Z,9.00
2023-05-14T07:46:00.400Z,7.40
2023-05-14T07:51:02.082Z,7.40
2023-05-14T07:56:03.913Z,7.70
2023-05-14T08:01:07.260Z,7.60
2023-05-14T08:06:09.339Z,8.10
2023-05-14T08:11:11.138Z,8.10
2023-05-14T08:16:12.953Z,5.90
2023-05-14T08:21:14.964Z,5.80
2023-05-14T08:26:16.940Z,5.90
2023-05-14T08:31:18.698Z,5.40
2023-05-14T08:36:20.749Z,7.40
2023-05-14T08:41:22.749Z,7.80
2023-05-14T08:46:27.326Z,7.50
2023-05-14T08:51:29.119Z,7.70
2023-05-14T08:56:33.286Z,7.20
2023-05-14T09:01:35.876Z,5.10
2023-05-14T09:06:39.487Z,5.50
2023-05-14T09:11:48.634Z,4.70
2023-05-14T09:16:51.499Z,5.60
2023-05-14T09:21:58.382Z,5.10
2023-05-14T09:27:00.119Z,5.90
2023-05-14T09:32:05.360Z,6.30
2023-05-14T09:37:09.325Z,5.80
2023-05-14T09:42:11.009Z,6.30
2023-05-14T09:47:15.608Z,5.70
2023-05-14T09:52:19.716Z,6.00
2023-05-14T09:57:21.623Z,6.40
2023-05-14T10:02:27.458Z,6.80
2023-05-14T10:07:38.750Z,6.50
2023-05-14T10:12:40.869Z,7.00
2023-05-14T10:17:47.265Z,6.00
2023-05-14T10:22:49.126Z,7.10
2023-05-14T10:27:51.027Z,7.10
2023-05-14T10:33:12.688Z,5.90
2023-05-14T10:38:15.282Z,6.70
2023-05-14T10:43:17.627Z,6.40
2023-05-14T10:48:19.913Z,4.70
2023-05-14T10:53:34.644Z,6.00
2023-05-14T10:58:42.191Z,5.00
2023-05-14T11:03:46.343Z,4.40
2023-05-14T11:08:51.194Z,5.10
2023-05-14T11:13:53.735Z,5.00
2023-05-14T11:19:03.476Z,4.30
2023-05-14T11:24:07.428Z,4.60
2023-05-14T11:29:10.465Z,4.00
2023-05-14T11:34:12.152Z,4.30
2023-05-14T11:39:20.248Z,4.10
2023-05-14T11:44:22.625Z,3.70
2023-05-14T11:49:25.408Z,4.60
2023-05-14T11:54:31.358Z,5.10
2023-05-14T11:59:33.082Z,3.80
2023-05-14T12:04:34.887Z,3.80
2023-05-14T12:09:45.194Z,3.60
2023-05-14T12:14:48.208Z,2.90
2023-05-14T12:19:51.924Z,3.50
2023-05-14T12:24:58.780Z,3.60
2023-05-14T12:30:21.164Z,4.00
2023-05-14T12:35:24.028Z,3.40
2023-05-14T12:40:26.324Z,3.00
2023-05-14T12:45:28.198Z,3.10
2023-05-14T12:50:29.928Z,3.10
2023-05-14T12:55:31.742Z,4.40
2023-05-14T13:00:33.425Z,4.10
2023-05-14T13:05:35.864Z,2.80
2023-05-14T13:10:37.908Z,3.50
2023-05-14T13:15:39.565Z,3.10
2023-05-14T13:20:43.224Z,3.00
2023-05-14T13:25:46.478Z,3.30
2023-05-14T13:31:10.299Z,3.30
2023-05-14T13:36:14.997Z,3.10
2023-05-14T13:41:16.835Z,2.80
2023-05-14T13:46:18.532Z,3.30
2023-05-14T13:51:20.325Z,3.60
2023-05-14T13:56:22.034Z,3.60
2023-05-14T14:01:23.808Z,3.60
2023-05-14T14:06:27.163Z,3.70
2023-05-14T14:11:28.966Z,3.80
2023-05-14T14:16:30.720Z,3.70
2023-05-14T14:21:33.033Z,3.50
2023-05-14T14:26:34.670Z,3.10
2023-05-14T14:31:36.387Z,3.00
2023-05-14T14:36:38.263Z,3.10
2023-05-14T14:41:40.183Z,2.50
2023-05-14T14:46:42.935Z,3.40
2023-05-14T14:51:44.756Z,2.80
2023-05-14T14:56:48.238Z,2.90
2023-05-14T15:01:49.909Z,2.60
2023-05-14T15:06:51.673Z,3.40
2023-05-14T15:11:53.624Z,2.70
2023-05-14T15:16:55.373Z,9.10
2023-05-14T15:21:57.247Z,2.80
2023-05-14T15:26:58.961Z,2.60
2023-05-14T15:32:00.725Z,2.70
2023-05-14T15:37:02.918Z,2.80
2023-05-14T15:42:06.481Z,2.40
2023-05-14T15:47:08.187Z,2.60
2023-05-14T15:52:10.039Z,2.50
2023-05-14T15:57:12.007Z,3.00
2023-05-14T16:02:15.126Z,4.40
2023-05-14T16:07:16.892Z,3.40
2023-05-14T16:12:18.794Z,2.80
2023-05-14T16:17:20.509Z,3.10
2023-05-14T16:27:23.917Z,3.30
2023-05-14T16:37:27.663Z,3.80
2023-05-14T16:42:29.464Z,2.90
2023-05-14T16:47:31.174Z,3.40
2023-05-14T16:52:33.124Z,2.60
2023-05-14T16:57:35.225Z,3.40
2023-05-14T17:02:37.179Z,2.90
2023-05-14T17:07:39.266Z,3.00
2023-05-14T17:12:40.910Z,3.00
2023-05-14T17:17:42.700Z,3.50
2023-05-14T17:22:44.423Z,3.40
2023-05-14T17:32:50.346Z,3.70
2023-05-14T17:37:52.813Z,5.20
2023-05-14T17:47:56.344Z,4.40
2023-05-14T17:52:58.101Z,3.80
2023-05-14T17:57:59.912Z,5.00
2023-05-14T18:03:01.773Z,3.90
2023-05-14T18:08:03.628Z,6.60
2023-05-14T18:13:05.642Z,5.00
2023-05-14T18:18:07.919Z,4.10
2023-05-14T18:23:09.802Z,5.80
2023-05-14T18:28:12.919Z,5.90
2023-05-14T18:33:14.695Z,5.60
2023-05-14T18:38:17.886Z,5.80
2023-05-14T18:43:20.019Z,5.50
2023-05-14T18:48:21.874Z,6.00
2023-05-14T18:53:23.607Z,8.20
2023-05-14T18:58:25.726Z,7.90
2023-05-14T19:03:28.965Z,7.70
2023-05-14T19:08:30.723Z,8.50
2023-05-14T19:13:32.992Z,8.20
2023-05-14T19:18:34.698Z,8.70
2023-05-14T19:23:36.370Z,7.90
2023-05-14T19:28:38.971Z,8.60
2023-05-14T19:33:40.762Z,11.20
2023-05-14T19:38:42.395Z,7.90
2023-05-14T19:43:44.029Z,7.30
2023-05-14T19:48:45.714Z,7.90
2023-05-14T19:53:47.539Z,11.10
2023-05-14T19:58:49.356Z,10.70
2023-05-14T20:03:50.958Z,11.90
2023-05-14T20:08:52.707Z,14.10
2023-05-14T20:18:56.511Z,12.10
2023-05-14T20:23:58.225Z,12.50
2023-05-14T20:29:00.201Z,11.60
2023-05-14T20:34:02.306Z,12.10
2023-05-14T20:44:08.073Z,14.70
2023-05-14T20:49:09.694Z,12.00
2023-05-14T20:54:11.421Z,9.20
2023-05-14T20:59:13.266Z,8.30
2023-05-14T21:04:15.282Z,9.90
2023-05-14T21:09:24.702Z,9.80
2023-05-14T21:14:31.662Z,10.30
2023-05-14T21:19:33.312Z,9.60
2023-05-14T21:24:35.024Z,10.30
2023-05-14T21:29:36.953Z,9.70
2023-05-14T21:34:38.689Z,10.70
2023-05-14T21:39:41.134Z,10.50
2023-05-14T21:44:43.593Z,11.00
2023-05-14T21:49:53.501Z,11.80
2023-05-14T21:54:55.187Z,12.20
2023-05-14T21:59:58.135Z,10.10
2023-05-14T22:04:59.734Z,11.80
2023-05-14T22:10:01.469Z,10.60
2023-05-14T22:15:03.821Z,10.10
2023-05-14T22:20:06.999Z,13.80
2023-05-14T22:25:09.221Z,13.50
2023-05-14T22:30:11.633Z,11.60
2023-05-14T22:35:13.276Z,13.60
2023-05-14T22:40:15.086Z,14.50
2023-05-14T22:45:16.904Z,15.40
2023-05-14T22:50:18.694Z,12.60
2023-05-14T22:55:20.343Z,12.20
2023-05-14T23:00:22.178Z,26.10
2023-05-14T23:05:24.028Z,13.90
2023-05-14T23:10:29.686Z,13.20
2023-05-14T23:15:36.169Z,12.70
2023-05-14T23:20:37.810Z,11.50
2023-05-14T23:25:39.506Z,12.30
2023-05-14T23:30:41.368Z,14.00
2023-05-14T23:35:43.304Z,14.70
2023-05-14T23:40:45.664Z,13.50
2023-05-14T23:45:50.430Z,10.30
2023-05-14T23:50:54.716Z,10.30
2023-05-14T23:55:56.567Z,12.50
